Terminal Aerodrome Forecast
Issued by NWS

Home | Current Version | Previous Version | Text Only | Print | Product List | Glossary On
Versions: 1 2 3 4 5 6 7 8 9 10 11 12 13 14 15 16 17 18 19 20 21 22 23 24 25 26 27 28 29 30 31 32 33 34 35 36 37 38 39 40 41 42 43 44
000
FTUS43 KDMX 130233 AAA
TAFMCW
TAF AMD
KMCW 130233Z 1303/1324 21012KT P6SM BKN080
     FM131100 24009KT P6SM BKN060
     FM131300 31016G25KT P6SM -RASN OVC015
     FM131600 31023G35KT P6SM VCSH OVC014
     FM132200 32023G37KT P6SM BKN015=

USA.gov is the U.S. government's official web portal to all federal, state and local government web resources and services.